createdAt,value
2023-01-27T00:01:08.850Z,74.30
2023-01-27T00:03:36.087Z,74.30
2023-01-27T00:06:04.931Z,74.20
2023-01-27T00:08:32.107Z,74.30
2023-01-27T00:11:18.333Z,74.30
2023-01-27T00:13:45.596Z,74.30
2023-01-27T00:16:12.914Z,74.40
2023-01-27T00:18:39.893Z,74.40
2023-01-27T00:21:25.488Z,74.60
2023-01-27T00:24:11.082Z,74.50
2023-01-27T00:26:38.069Z,74.60
2023-01-27T00:29:05.661Z,74.50
2023-01-27T00:31:51.169Z,74.70
2023-01-27T00:34:18.192Z,74.80
2023-01-27T00:36:45.364Z,74.90
2023-01-27T00:39:12.861Z,74.90
2023-01-27T00:41:40.451Z,74.90
2023-01-27T00:44:13.596Z,75.00
2023-01-27T00:46:42.749Z,75.00
2023-01-27T00:49:11.376Z,75.00
2023-01-27T00:51:38.515Z,75.00
2023-01-27T00:54:06.492Z,75.00
2023-01-27T00:56:33.678Z,75.00
2023-01-27T00:59:02.343Z,75.00
2023-01-27T01:01:30.564Z,75.00
2023-01-27T01:03:59.939Z,75.10
2023-01-27T01:06:28.071Z,75.00
2023-01-27T01:08:57.257Z,75.00
2023-01-27T01:11:25.593Z,75.00
2023-01-27T01:13:55.600Z,75.00
2023-01-27T01:16:24.827Z,75.00
2023-01-27T01:18:51.979Z,75.00
2023-01-27T01:21:20.533Z,75.00
2023-01-27T01:23:47.695Z,75.00
2023-01-27T01:26:17.170Z,75.10
2023-01-27T01:28:47.048Z,75.10
2023-01-27T01:31:18.219Z,75.20
2023-01-27T01:33:46.663Z,75.20
2023-01-27T01:36:18.348Z,75.20
2023-01-27T01:38:46.397Z,75.20
2023-01-27T01:41:21.377Z,75.20
2023-01-27T01:43:51.241Z,75.10
2023-01-27T01:46:19.990Z,75.00
2023-01-27T01:48:59.149Z,75.00
2023-01-27T01:51:35.149Z,75.00
2023-01-27T01:54:19.994Z,75.00
2023-01-27T01:56:54.302Z,75.00
2023-01-27T01:59:27.713Z,75.00
2023-01-27T02:01:58.497Z,74.90
2023-01-27T02:04:32.856Z,74.80
2023-01-27T02:07:08.807Z,74.80
2023-01-27T02:09:38.834Z,74.80
2023-01-27T02:12:06.186Z,74.70
2023-01-27T02:14:33.594Z,74.70
2023-01-27T02:17:01.096Z,74.70
2023-01-27T02:19:53.056Z,74.60
2023-01-27T02:22:41.785Z,74.70
2023-01-27T02:25:26.759Z,74.60
2023-01-27T02:27:53.722Z,74.60
2023-01-27T02:30:21.238Z,74.60
2023-01-27T02:32:48.322Z,74.70
2023-01-27T02:35:23.855Z,74.70
2023-01-27T02:37:52.104Z,74.70
2023-01-27T02:40:21.308Z,74.80
2023-01-27T02:42:49.683Z,74.80
2023-01-27T02:45:16.926Z,74.70
2023-01-27T02:47:43.995Z,74.80
2023-01-27T02:50:11.631Z,74.70
2023-01-27T02:52:38.712Z,74.70
2023-01-27T02:55:06.876Z,74.80
2023-01-27T02:57:34.011Z,74.80
2023-01-27T03:00:23.603Z,74.80
2023-01-27T03:02:50.866Z,74.70
2023-01-27T03:05:17.922Z,74.70
2023-01-27T03:07:45.018Z,74.70
2023-01-27T03:10:12.436Z,74.70
2023-01-27T03:12:39.417Z,74.70
2023-01-27T03:15:26.248Z,74.60
2023-01-27T03:18:11.571Z,74.40
2023-01-27T03:20:40.919Z,74.50
2023-01-27T03:23:08.946Z,74.60
2023-01-27T03:25:40.982Z,74.50
2023-01-27T03:28:08.054Z,74.50
2023-01-27T03:31:08.749Z,74.50
2023-01-27T03:33:43.938Z,74.40
2023-01-27T03:36:45.791Z,74.40
2023-01-27T03:39:31.764Z,74.40
2023-01-27T03:42:17.072Z,74.30
2023-01-27T03:45:03.275Z,74.30
2023-01-27T03:47:30.512Z,74.30
2023-01-27T03:49:57.869Z,74.30
2023-01-27T03:52:24.900Z,74.30
2023-01-27T03:54:51.933Z,74.40
2023-01-27T03:57:19.045Z,74.60
2023-01-27T03:59:46.143Z,74.60
2023-01-27T04:02:31.628Z,74.70
2023-01-27T04:05:17.498Z,74.70
2023-01-27T04:07:44.442Z,74.80
2023-01-27T04:10:11.739Z,74.90
2023-01-27T04:12:38.696Z,74.80
2023-01-27T04:15:06.794Z,74.90
2023-01-27T04:17:38.768Z,75.00
2023-01-27T04:20:06.733Z,75.00
2023-01-27T04:22:33.843Z,75.00
2023-01-27T04:25:00.817Z,75.00
2023-01-27T04:27:28.014Z,75.00
2023-01-27T04:29:55.047Z,75.30
2023-01-27T04:32:22.195Z,75.00
2023-01-27T04:34:49.160Z,75.20
2023-01-27T04:37:16.266Z,75.20
2023-01-27T04:39:45.571Z,75.10
2023-01-27T04:42:12.684Z,75.20
2023-01-27T04:44:40.444Z,75.20
2023-01-27T04:47:07.355Z,75.30
2023-01-27T04:49:34.725Z,75.30
2023-01-27T04:52:01.704Z,75.30
2023-01-27T04:54:28.677Z,75.20
2023-01-27T04:57:03.347Z,75.30
2023-01-27T04:59:30.489Z,75.30
2023-01-27T05:01:57.920Z,75.40
2023-01-27T05:04:26.810Z,75.40
2023-01-27T05:06:54.358Z,75.50
2023-01-27T05:09:21.536Z,75.60
2023-01-27T05:11:48.586Z,75.60
2023-01-27T05:14:15.509Z,75.70
2023-01-27T05:16:42.885Z,75.80
2023-01-27T05:19:10.272Z,75.90
2023-01-27T05:21:37.174Z,76.00
2023-01-27T05:24:04.584Z,76.10
2023-01-27T05:26:31.589Z,76.10
2023-01-27T05:28:59.460Z,76.10
2023-01-27T05:31:31.498Z,76.20
2023-01-27T05:34:00.949Z,76.30
2023-01-27T05:36:29.570Z,77.30
2023-01-27T05:38:58.296Z,76.40
2023-01-27T05:41:25.641Z,76.50
2023-01-27T05:43:55.378Z,76.60
2023-01-27T05:46:29.540Z,76.50
2023-01-27T05:49:00.732Z,76.50
2023-01-27T05:51:32.515Z,76.50
2023-01-27T05:53:59.759Z,76.40
2023-01-27T05:56:26.848Z,76.40
2023-01-27T05:58:55.585Z,76.30
2023-01-27T06:01:26.381Z,76.30
2023-01-27T06:03:53.693Z,76.30
2023-01-27T06:06:24.252Z,76.30
2023-01-27T06:08:51.823Z,76.20
2023-01-27T06:11:21.324Z,76.30
2023-01-27T06:13:49.243Z,76.10
2023-01-27T06:16:19.025Z,75.90
2023-01-27T06:18:47.464Z,75.90
2023-01-27T06:21:16.375Z,75.90
2023-01-27T06:23:43.760Z,75.80
2023-01-27T06:26:17.323Z,75.80
2023-01-27T06:28:45.220Z,76.00
2023-01-27T06:31:16.277Z,76.00
2023-01-27T06:33:44.241Z,76.00
2023-01-27T06:36:18.633Z,76.00
2023-01-27T06:38:46.845Z,76.00
2023-01-27T06:41:14.252Z,76.00
2023-01-27T06:43:41.435Z,75.90
2023-01-27T06:46:09.202Z,75.90
2023-01-27T06:48:37.908Z,76.00
2023-01-27T06:51:05.443Z,75.90
2023-01-27T06:53:32.729Z,75.90
2023-01-27T06:56:01.192Z,76.00
2023-01-27T06:58:28.878Z,76.00
2023-01-27T07:00:57.075Z,76.10
2023-01-27T07:03:25.061Z,76.30
2023-01-27T07:05:53.354Z,76.50
2023-01-27T07:08:20.539Z,76.50
2023-01-27T07:10:47.484Z,76.60
2023-01-27T07:13:15.834Z,76.60
2023-01-27T07:15:44.008Z,76.50
2023-01-27T07:18:13.700Z,76.50
2023-01-27T07:20:41.618Z,76.50
2023-01-27T07:23:10.458Z,76.40
2023-01-27T07:25:37.842Z,76.50
2023-01-27T07:28:05.664Z,76.50
2023-01-27T07:30:34.083Z,76.60
2023-01-27T07:33:12.131Z,76.50
2023-01-27T07:35:41.084Z,76.50
2023-01-27T07:38:08.495Z,76.50
2023-01-27T07:40:36.302Z,76.50
2023-01-27T07:43:04.025Z,76.50
2023-01-27T07:45:34.033Z,76.60
2023-01-27T07:48:03.044Z,76.60
2023-01-27T07:50:30.657Z,76.60
2023-01-27T07:53:02.663Z,76.70
2023-01-27T07:55:32.873Z,76.70
2023-01-27T07:58:00.032Z,76.60
2023-01-27T08:00:29.131Z,76.50
2023-01-27T08:02:57.772Z,76.40
2023-01-27T08:05:25.739Z,76.30
2023-01-27T08:07:56.160Z,76.30
2023-01-27T08:10:25.009Z,76.20
2023-01-27T08:12:51.965Z,76.10
2023-01-27T08:15:19.432Z,76.20
2023-01-27T08:17:56.775Z,76.20
2023-01-27T08:20:26.604Z,76.20
2023-01-27T08:22:53.891Z,76.20
2023-01-27T08:25:21.504Z,76.10
2023-01-27T08:27:53.879Z,76.10
2023-01-27T08:30:21.749Z,76.10
2023-01-27T08:32:49.606Z,76.10
2023-01-27T08:35:16.747Z,75.90
2023-01-27T08:37:43.790Z,75.80
2023-01-27T08:40:12.131Z,76.00
2023-01-27T08:42:39.499Z,76.00
2023-01-27T08:45:07.227Z,76.00
2023-01-27T08:47:34.719Z,76.00
2023-01-27T08:50:01.700Z,76.10
2023-01-27T08:52:30.793Z,76.20
2023-01-27T08:54:58.839Z,76.20
2023-01-27T08:57:26.035Z,76.10
2023-01-27T08:59:53.136Z,76.20
2023-01-27T09:02:22.288Z,76.10
2023-01-27T09:04:49.465Z,76.20
2023-01-27T09:07:17.424Z,76.20
2023-01-27T09:09:47.941Z,76.30
2023-01-27T09:12:15.159Z,76.30
2023-01-27T09:14:42.553Z,75.90
2023-01-27T09:17:09.586Z,76.80
2023-01-27T09:19:36.789Z,76.00
2023-01-27T09:22:05.175Z,75.80
2023-01-27T09:24:32.132Z,75.80
2023-01-27T09:27:00.963Z,75.80
2023-01-27T09:29:29.340Z,75.90
2023-01-27T09:31:56.391Z,75.80
2023-01-27T09:34:23.614Z,75.90
2023-01-27T09:37:00.140Z,75.70
2023-01-27T09:39:28.175Z,75.50
2023-01-27T09:42:14.006Z,75.80
2023-01-27T09:44:50.246Z,75.70
2023-01-27T09:47:40.255Z,75.80
2023-01-27T09:50:43.549Z,75.80
2023-01-27T09:53:47.324Z,75.70
2023-01-27T09:56:35.592Z,75.70
2023-01-27T09:59:51.496Z,75.80
2023-01-27T10:02:34.818Z,75.80
2023-01-27T10:05:21.687Z,75.60
2023-01-27T10:08:31.043Z,75.60
2023-01-27T10:11:18.181Z,75.50
2023-01-27T10:14:06.751Z,75.40
2023-01-27T10:17:03.346Z,75.50
2023-01-27T10:20:02.311Z,75.40
2023-01-27T10:23:02.627Z,75.40
2023-01-27T10:26:15.698Z,75.80
2023-01-27T10:28:51.700Z,76.10
2023-01-27T10:31:27.230Z,75.10
2023-01-27T10:34:01.743Z,75.20
2023-01-27T10:36:40.626Z,76.00
2023-01-27T10:39:30.540Z,75.10
2023-01-27T10:42:43.545Z,75.10
2023-01-27T10:45:39.925Z,74.90
2023-01-27T10:48:18.840Z,74.10
2023-01-27T10:51:01.141Z,74.30
2023-01-27T10:53:51.860Z,74.40
2023-01-27T10:56:46.029Z,74.60
2023-01-27T10:59:50.245Z,74.10
2023-01-27T11:03:05.373Z,74.10
2023-01-27T11:05:42.597Z,74.00
2023-01-27T11:08:18.988Z,73.90
2023-01-27T11:11:10.583Z,73.80
2023-01-27T11:13:39.383Z,73.60
2023-01-27T11:16:15.276Z,73.90
2023-01-27T11:18:46.019Z,73.70
2023-01-27T11:21:26.622Z,73.50
2023-01-27T11:23:57.108Z,73.50
2023-01-27T11:26:30.910Z,73.50
2023-01-27T11:29:18.727Z,73.40
2023-01-27T11:32:28.791Z,73.40
2023-01-27T11:35:15.739Z,73.20
2023-01-27T11:37:58.222Z,73.60
2023-01-27T11:40:38.444Z,73.70
2023-01-27T11:43:05.853Z,73.90
2023-01-27T11:45:36.312Z,73.80
2023-01-27T11:48:08.546Z,73.90
2023-01-27T11:50:36.863Z,73.90
2023-01-27T11:53:24.398Z,74.00
2023-01-27T11:56:03.229Z,74.00
2023-01-27T11:58:45.482Z,74.00
2023-01-27T12:01:18.758Z,73.80
2023-01-27T12:04:04.751Z,74.00
2023-01-27T12:06:41.033Z,74.80
2023-01-27T12:09:41.123Z,74.00
2023-01-27T12:12:13.884Z,73.90
2023-01-27T12:14:49.874Z,74.00
2023-01-27T12:17:43.269Z,74.10
2023-01-27T12:20:22.143Z,74.10
2023-01-27T12:22:58.878Z,73.80
2023-01-27T12:25:29.872Z,73.80
2023-01-27T12:28:04.157Z,73.80
2023-01-27T12:30:35.872Z,73.60
2023-01-27T12:33:19.823Z,73.60
2023-01-27T12:35:49.895Z,73.60
2023-01-27T12:38:24.696Z,74.00
2023-01-27T12:41:06.534Z,74.00
2023-01-27T12:43:52.561Z,74.10
2023-01-27T12:46:32.073Z,74.20
2023-01-27T12:49:14.872Z,74.00
2023-01-27T12:51:50.816Z,74.10
2023-01-27T12:54:23.583Z,74.00
2023-01-27T12:56:54.079Z,73.70
2023-01-27T12:59:24.760Z,74.00
2023-01-27T13:02:26.916Z,74.10
2023-01-27T13:04:58.364Z,74.20
2023-01-27T13:07:33.435Z,74.20
2023-01-27T13:10:03.886Z,74.20
2023-01-27T13:12:52.580Z,75.10
2023-01-27T13:15:23.932Z,74.30
2023-01-27T13:17:56.682Z,74.40
2023-01-27T13:20:32.062Z,74.30
2023-01-27T13:23:22.971Z,74.20
2023-01-27T13:26:05.469Z,74.20
2023-01-27T13:29:07.355Z,74.30
2023-01-27T13:31:42.930Z,74.10
2023-01-27T13:34:43.583Z,74.00
2023-01-27T13:37:20.745Z,74.00
2023-01-27T13:40:32.920Z,74.10
2023-01-27T13:43:23.487Z,74.10
2023-01-27T13:46:02.092Z,73.80
2023-01-27T13:48:44.304Z,74.00
2023-01-27T13:51:21.161Z,74.00
2023-01-27T13:53:58.506Z,74.20
2023-01-27T13:57:20.132Z,74.30
2023-01-27T14:00:16.233Z,74.30
2023-01-27T14:03:20.009Z,74.40
2023-01-27T14:06:17.357Z,74.20
2023-01-27T14:09:18.748Z,74.50
2023-01-27T14:12:29.610Z,74.60
2023-01-27T14:15:14.697Z,74.60
2023-01-27T14:17:56.881Z,74.30
2023-01-27T14:20:57.063Z,74.60
2023-01-27T14:23:35.962Z,74.70
2023-01-27T14:26:28.084Z,74.80
2023-01-27T14:29:22.617Z,74.80
2023-01-27T14:32:19.603Z,74.80
2023-01-27T14:35:17.452Z,74.70
2023-01-27T14:38:31.211Z,74.80
2023-01-27T14:41:27.857Z,74.80
2023-01-27T14:44:29.956Z,74.90
2023-01-27T14:47:44.388Z,74.80
2023-01-27T14:50:38.666Z,75.60
2023-01-27T14:53:40.765Z,74.90
2023-01-27T14:56:16.135Z,75.00
2023-01-27T14:59:01.689Z,75.00
2023-01-27T15:01:57.313Z,75.20
2023-01-27T15:04:44.297Z,75.40
2023-01-27T15:07:27.639Z,75.40
2023-01-27T15:10:09.630Z,75.50
2023-01-27T15:13:14.183Z,75.60
2023-01-27T15:15:59.713Z,75.70
2023-01-27T15:18:48.445Z,75.80
2023-01-27T15:21:48.442Z,75.70
2023-01-27T15:24:30.262Z,75.80
2023-01-27T15:26:58.664Z,75.90
2023-01-27T15:29:28.760Z,75.90
2023-01-27T15:32:17.221Z,75.90
2023-01-27T15:34:52.204Z,76.00
2023-01-27T15:37:29.926Z,75.90
2023-01-27T15:40:06.072Z,75.90
2023-01-27T15:43:05.184Z,75.80
2023-01-27T15:45:45.166Z,75.80
2023-01-27T15:48:23.312Z,75.70
2023-01-27T15:51:04.679Z,75.70
2023-01-27T15:53:49.655Z,75.70
2023-01-27T15:56:17.336Z,75.70
2023-01-27T15:58:52.481Z,75.70
2023-01-27T16:01:32.772Z,75.80
2023-01-27T16:04:12.131Z,75.70
2023-01-27T16:07:02.148Z,75.80
2023-01-27T16:09:42.835Z,75.60
2023-01-27T16:12:27.849Z,75.50
2023-01-27T16:15:00.841Z,75.50
2023-01-27T16:17:33.078Z,75.50
2023-01-27T16:20:31.180Z,75.50
2023-01-27T16:23:08.312Z,75.60
2023-01-27T16:25:53.113Z,75.60
2023-01-27T16:28:28.325Z,75.60
2023-01-27T16:31:01.839Z,75.80
2023-01-27T16:33:40.641Z,75.80
2023-01-27T16:36:29.420Z,76.70
2023-01-27T16:39:09.477Z,75.90
2023-01-27T16:41:39.336Z,75.90
2023-01-27T16:44:21.390Z,76.10
2023-01-27T16:46:58.348Z,76.40
2023-01-27T16:49:34.800Z,76.40
2023-01-27T16:52:04.676Z,76.50
2023-01-27T16:54:42.881Z,76.60
2023-01-27T16:57:32.369Z,76.80
2023-01-27T17:00:20.718Z,76.90
2023-01-27T17:02:49.267Z,76.80
2023-01-27T17:05:19.232Z,76.80
2023-01-27T17:08:18.201Z,76.90
2023-01-27T17:10:55.841Z,77.00
2023-01-27T17:13:29.958Z,77.10
2023-01-27T17:15:59.689Z,77.10
2023-01-27T17:18:27.665Z,77.20
2023-01-27T17:20:55.447Z,77.20
2023-01-27T17:23:36.130Z,77.20
2023-01-27T17:26:16.074Z,77.20
2023-01-27T17:28:46.395Z,77.20
2023-01-27T17:31:21.203Z,77.30
2023-01-27T17:33:57.689Z,77.40
2023-01-27T17:36:24.947Z,77.50
2023-01-27T17:38:54.779Z,77.50
2023-01-27T17:41:28.752Z,77.50
2023-01-27T17:44:01.255Z,77.50
2023-01-27T17:46:32.950Z,78.30
2023-01-27T17:49:28.282Z,77.50
2023-01-27T17:51:57.545Z,77.50
2023-01-27T17:54:39.647Z,77.30
2023-01-27T17:57:36.074Z,77.30
2023-01-27T18:00:24.963Z,77.10
2023-01-27T18:03:03.770Z,77.10
2023-01-27T18:05:34.263Z,76.90
2023-01-27T18:08:03.714Z,76.90
2023-01-27T18:10:33.724Z,76.70
2023-01-27T18:13:19.053Z,76.60
2023-01-27T18:16:07.830Z,76.60
2023-01-27T18:18:36.483Z,76.50
2023-01-27T18:21:09.517Z,76.40
2023-01-27T18:23:57.450Z,76.10
2023-01-27T18:26:38.145Z,75.40
2023-01-27T18:29:19.899Z,75.50
2023-01-27T18:32:17.022Z,75.70
2023-01-27T18:34:50.171Z,75.60
2023-01-27T18:37:32.942Z,75.60
2023-01-27T18:40:02.227Z,75.70
2023-01-27T18:42:31.114Z,75.70
2023-01-27T18:44:58.227Z,75.80
2023-01-27T18:47:35.055Z,75.70
2023-01-27T18:50:07.605Z,75.70
2023-01-27T18:52:35.565Z,75.70
2023-01-27T18:55:19.379Z,75.50
2023-01-27T18:57:49.794Z,75.40
2023-01-27T19:00:43.317Z,75.30
2023-01-27T19:03:19.367Z,75.00
2023-01-27T19:05:48.061Z,75.00
2023-01-27T19:08:24.196Z,75.00
2023-01-27T19:10:52.596Z,75.00
2023-01-27T19:13:19.789Z,75.00
2023-01-27T19:15:53.771Z,74.90
2023-01-27T19:18:34.429Z,74.70
2023-01-27T19:21:02.327Z,74.70
2023-01-27T19:23:29.615Z,74.70
2023-01-27T19:25:58.618Z,74.80
2023-01-27T19:28:37.647Z,74.70
2023-01-27T19:31:07.409Z,74.70
2023-01-27T19:33:37.100Z,74.80
2023-01-27T19:36:32.342Z,74.80
2023-01-27T19:39:19.969Z,74.80
2023-01-27T19:41:47.306Z,74.60
2023-01-27T19:44:15.235Z,74.70
2023-01-27T19:46:43.297Z,74.70
2023-01-27T19:49:17.545Z,74.80
2023-01-27T19:51:44.967Z,74.80
2023-01-27T19:54:12.468Z,74.80
2023-01-27T19:56:39.451Z,74.80
2023-01-27T19:59:06.848Z,74.70
2023-01-27T20:01:33.821Z,74.70
2023-01-27T20:04:01.107Z,74.70
2023-01-27T20:06:31.092Z,75.50
2023-01-27T20:09:02.410Z,74.70
2023-01-27T20:11:36.824Z,74.60
2023-01-27T20:14:16.452Z,74.70
2023-01-27T20:16:43.640Z,74.60
2023-01-27T20:19:15.273Z,74.60
2023-01-27T20:21:44.002Z,74.50
2023-01-27T20:24:19.333Z,74.60
2023-01-27T20:26:46.641Z,74.50
2023-01-27T20:29:14.035Z,74.60
2023-01-27T20:31:41.311Z,74.60
2023-01-27T20:34:08.709Z,74.70
2023-01-27T20:36:35.905Z,74.70
2023-01-27T20:39:03.439Z,74.60
2023-01-27T20:41:30.599Z,74.60
2023-01-27T20:44:00.467Z,74.60
2023-01-27T20:46:29.284Z,75.40
2023-01-27T20:48:58.660Z,74.60
2023-01-27T20:51:25.722Z,74.50
2023-01-27T20:53:52.615Z,74.50
2023-01-27T20:56:23.477Z,74.40
2023-01-27T20:58:50.757Z,74.50
2023-01-27T21:01:24.497Z,74.50
2023-01-27T21:03:51.960Z,74.50
2023-01-27T21:06:20.490Z,74.50
2023-01-27T21:08:49.297Z,74.40
2023-01-27T21:11:18.511Z,74.30
2023-01-27T21:13:46.137Z,74.40
2023-01-27T21:16:13.845Z,74.30
2023-01-27T21:18:40.941Z,74.40
2023-01-27T21:21:07.943Z,74.40
2023-01-27T21:23:35.184Z,74.40
2023-01-27T21:26:10.360Z,74.30
2023-01-27T21:28:37.389Z,74.20
2023-01-27T21:31:09.811Z,74.30
2023-01-27T21:33:38.706Z,74.30
2023-01-27T21:36:10.321Z,74.30
2023-01-27T21:38:38.967Z,74.40
2023-01-27T21:41:08.280Z,74.30
2023-01-27T21:43:54.441Z,74.30
2023-01-27T21:46:22.047Z,74.30
2023-01-27T21:48:48.994Z,74.30
2023-01-27T21:51:16.125Z,74.40
2023-01-27T21:53:43.146Z,74.30
2023-01-27T21:56:11.691Z,74.40
2023-01-27T21:58:39.164Z,74.30
2023-01-27T22:01:08.302Z,74.30
2023-01-27T22:03:36.660Z,74.30
2023-01-27T22:06:08.829Z,74.30
2023-01-27T22:08:36.716Z,74.30
2023-01-27T22:11:11.688Z,74.20
2023-01-27T22:13:39.698Z,74.10
2023-01-27T22:16:07.675Z,74.10
2023-01-27T22:18:35.764Z,74.10
2023-01-27T22:21:03.120Z,74.20
2023-01-27T22:23:30.526Z,74.20
2023-01-27T22:25:57.977Z,74.20
2023-01-27T22:28:26.504Z,74.20
2023-01-27T22:30:54.109Z,74.20
2023-01-27T22:33:21.364Z,74.00
2023-01-27T22:35:48.402Z,74.00
2023-01-27T22:38:15.588Z,74.00
2023-01-27T22:40:42.524Z,74.10
2023-01-27T22:43:10.664Z,74.00
2023-01-27T22:45:40.815Z,74.10
2023-01-27T22:48:08.979Z,74.30
2023-01-27T22:50:37.074Z,74.30
2023-01-27T22:53:05.347Z,74.40
2023-01-27T22:55:33.043Z,74.40
2023-01-27T22:58:00.047Z,74.50
2023-01-27T23:00:27.152Z,74.60
2023-01-27T23:02:54.501Z,74.60
2023-01-27T23:05:21.810Z,74.70
2023-01-27T23:07:50.252Z,74.70
2023-01-27T23:10:17.858Z,74.70
2023-01-27T23:12:45.437Z,74.80
2023-01-27T23:15:13.452Z,74.80
2023-01-27T23:17:40.632Z,74.70
2023-01-27T23:20:08.775Z,74.80
2023-01-27T23:22:35.913Z,74.80
2023-01-27T23:25:02.988Z,74.80
2023-01-27T23:27:30.114Z,74.80
2023-01-27T23:29:57.024Z,74.70
2023-01-27T23:32:24.116Z,74.70
2023-01-27T23:34:51.549Z,74.60
2023-01-27T23:37:18.753Z,74.60
2023-01-27T23:39:48.726Z,74.60
2023-01-27T23:42:17.783Z,74.60
2023-01-27T23:44:45.244Z,74.60
2023-01-27T23:47:13.740Z,74.70
2023-01-27T23:49:41.112Z,74.60
2023-01-27T23:52:08.612Z,74.70
2023-01-27T23:54:35.969Z,74.70
2023-01-27T23:57:03.085Z,74.70
2023-01-27T23:59:29.987Z,74.70
